Time;durP1;ratioP1;P1;durP2;ratioP2;P2;SDS_P1;SDS_P2;PMS_P1;PMS_P2;Temp;Humidity;BMP_temperature;BMP_pressure;BME280_temperature;BME280_humidity;BME280_pressure;Samples;Min_cycle;Max_cycle;Signal;HPM_P1;HPM_P2
2022/11/22 00:01:09;;;;;;;4.93;2.60;;;;;;;;;;4937458;28;20453;-56
2022/11/22 00:03:35;;;;;;;7.17;2.87;;;;;;;;;;4965598;28;20455;-54
2022/11/22 00:06:01;;;;;;;4.07;2.77;;;;;;;;;;4963349;28;20525;-61
2022/11/22 00:08:27;;;;;;;5.83;3.20;;;;;;;;;;4963917;28;20581;-52
2022/11/22 00:10:53;;;;;;;3.30;1.97;;;;;;;;;;4921390;28;20559;-54
2022/11/22 00:13:20;;;;;;;3.80;2.40;;;;;;;;;;4969105;28;20444;-55
2022/11/22 00:15:56;;;;;;;3.57;2.53;;;;;;;;;;4960510;28;20997;-54
2022/11/22 00:18:21;;;;;;;3.70;2.50;;;;;;;;;;4952203;28;20492;-54
2022/11/22 00:20:47;;;;;;;5.20;2.77;;;;;;;;;;4938038;28;20678;-55
2022/11/22 00:23:13;;;;;;;4.47;2.50;;;;;;;;;;4963660;28;20491;-54
2022/11/22 00:25:39;;;;;;;2.70;2.30;;;;;;;;;;4957198;28;20446;-52
2022/11/22 00:28:06;;;;;;;6.47;2.57;;;;;;;;;;4967530;28;20449;-53
2022/11/22 00:30:32;;;;;;;4.57;2.63;;;;;;;;;;4935271;28;20466;-53
2022/11/22 00:32:58;;;;;;;4.47;2.87;;;;;;;;;;4962217;28;20447;-54
2022/11/22 00:35:24;;;;;;;6.97;2.87;;;;;;;;;;4936286;28;20542;-54
2022/11/22 00:37:50;;;;;;;5.97;2.23;;;;;;;;;;4963706;28;20943;-54
2022/11/22 00:40:16;;;;;;;3.63;2.60;;;;;;;;;;4921392;28;20472;-55
2022/11/22 00:42:42;;;;;;;4.47;3.47;;;;;;;;;;4963402;28;20454;-54
2022/11/22 00:45:08;;;;;;;3.53;2.90;;;;;;;;;;4954387;28;20427;-54
2022/11/22 00:47:34;;;;;;;2.50;1.77;;;;;;;;;;4961506;28;20516;-54
2022/11/22 00:50:00;;;;;;;3.87;2.70;;;;;;;;;;4954335;28;20478;-53
2022/11/22 00:52:26;;;;;;;2.90;2.40;;;;;;;;;;4964171;28;20433;-55
2022/11/22 00:54:52;;;;;;;4.07;2.40;;;;;;;;;;4940689;28;20604;-57
2022/11/22 00:57:18;;;;;;;4.07;2.37;;;;;;;;;;4947893;28;20508;-54
2022/11/22 00:59:44;;;;;;;5.13;2.90;;;;;;;;;;4943393;28;20954;-55
2022/11/22 01:02:10;;;;;;;3.07;2.33;;;;;;;;;;4958184;28;20978;-53
2022/11/22 01:04:35;;;;;;;6.23;2.67;;;;;;;;;;4938696;28;20474;-55
2022/11/22 01:07:02;;;;;;;3.93;2.40;;;;;;;;;;4966654;28;20803;-56
2022/11/22 01:09:28;;;;;;;5.43;2.83;;;;;;;;;;4937434;28;21041;-56
2022/11/22 01:11:54;;;;;;;5.10;2.07;;;;;;;;;;4959604;28;20435;-55
2022/11/22 01:14:20;;;;;;;4.20;2.00;;;;;;;;;;4924107;28;20470;-55
2022/11/22 01:16:46;;;;;;;2.00;1.60;;;;;;;;;;4960922;28;20502;-54
2022/11/22 01:19:12;;;;;;;3.57;2.30;;;;;;;;;;4963521;28;20517;-54
2022/11/22 01:21:38;;;;;;;2.40;2.10;;;;;;;;;;4961212;28;20911;-55
2022/11/22 01:24:04;;;;;;;3.10;2.07;;;;;;;;;;4939684;28;20461;-52
2022/11/22 01:26:30;;;;;;;6.10;2.00;;;;;;;;;;4965009;28;20439;-54
2022/11/22 01:28:56;;;;;;;3.60;1.97;;;;;;;;;;4941762;28;20494;-55
2022/11/22 01:31:22;;;;;;;2.80;2.07;;;;;;;;;;4964625;28;20539;-53
2022/11/22 01:33:48;;;;;;;6.43;2.03;;;;;;;;;;4958834;28;20489;-53
2022/11/22 01:36:14;;;;;;;4.90;2.33;;;;;;;;;;4961797;28;20457;-54
2022/11/22 01:38:39;;;;;;;3.50;2.13;;;;;;;;;;4929230;28;20453;-54
2022/11/22 01:41:05;;;;;;;5.93;2.87;;;;;;;;;;4963934;28;20434;-52
2022/11/22 01:43:31;;;;;;;7.50;2.43;;;;;;;;;;4915331;28;22000;-52
2022/11/22 01:45:58;;;;;;;4.73;2.47;;;;;;;;;;4959375;28;20430;-52
2022/11/22 01:48:44;;;;;;;3.40;2.27;;;;;;;;;;4952887;28;20632;-54
2022/11/22 01:51:15;;;;;;;2.60;2.40;;;;;;;;;;4962134;28;21130;-53
2022/11/22 01:53:41;;;;;;;3.93;2.33;;;;;;;;;;4941024;28;20439;-53
2022/11/22 01:56:09;;;;;;;3.00;2.33;;;;;;;;;;4956100;28;20500;-55
2022/11/22 01:58:35;;;;;;;7.10;2.50;;;;;;;;;;4943878;28;20442;-53
2022/11/22 02:01:00;;;;;;;4.57;2.30;;;;;;;;;;4942226;28;20467;-56
2022/11/22 02:03:26;;;;;;;6.00;2.20;;;;;;;;;;4940755;28;21705;-54
2022/11/22 02:05:52;;;;;;;3.50;2.50;;;;;;;;;;4972209;28;20468;-58
2022/11/22 02:08:31;;;;;;;2.37;2.10;;;;;;;;;;4945984;28;20894;-54
2022/11/22 02:10:57;;;;;;;3.57;2.00;;;;;;;;;;4973706;28;20440;-53
2022/11/22 02:13:23;;;;;;;3.37;2.23;;;;;;;;;;4921011;28;20974;-53
2022/11/22 02:15:49;;;;;;;2.37;1.80;;;;;;;;;;4948266;28;20581;-53
2022/11/22 02:18:15;;;;;;;2.30;2.10;;;;;;;;;;4926027;28;20984;-53
2022/11/22 02:20:41;;;;;;;3.97;2.50;;;;;;;;;;4962636;28;20526;-53
2022/11/22 02:23:07;;;;;;;2.73;1.90;;;;;;;;;;4946385;28;20450;-53
2022/11/22 02:25:40;;;;;;;2.73;1.80;;;;;;;;;;4958764;28;20560;-53
2022/11/22 02:28:06;;;;;;;4.03;2.33;;;;;;;;;;4962028;28;20438;-54
2022/11/22 02:30:32;;;;;;;3.03;2.20;;;;;;;;;;4966802;28;20477;-54
2022/11/22 02:32:58;;;;;;;2.37;1.70;;;;;;;;;;4947140;28;21335;-55
2022/11/22 02:35:26;;;;;;;8.20;2.20;;;;;;;;;;4961191;28;20435;-53
2022/11/22 02:38:02;;;;;;;2.90;2.00;;;;;;;;;;4960113;28;20430;-55
2022/11/22 02:40:29;;;;;;;3.00;2.30;;;;;;;;;;4962783;28;20453;-56
2022/11/22 02:42:55;;;;;;;2.40;1.57;;;;;;;;;;4964820;28;20433;-54
2022/11/22 02:45:21;;;;;;;3.67;2.47;;;;;;;;;;4945149;28;20445;-52
2022/11/22 02:47:47;;;;;;;3.13;2.00;;;;;;;;;;4944066;28;20443;-54
2022/11/22 02:50:13;;;;;;;2.80;1.67;;;;;;;;;;4940611;28;20476;-52
2022/11/22 02:52:39;;;;;;;4.77;2.60;;;;;;;;;;4957061;28;20473;-54
2022/11/22 02:55:05;;;;;;;3.50;2.03;;;;;;;;;;4951567;28;20472;-54
2022/11/22 02:57:31;;;;;;;2.90;2.20;;;;;;;;;;4964671;28;20952;-53
2022/11/22 02:59:57;;;;;;;2.23;1.90;;;;;;;;;;4960115;28;20460;-54
2022/11/22 03:02:23;;;;;;;2.57;1.70;;;;;;;;;;4956812;28;20976;-53
2022/11/22 03:04:49;;;;;;;4.30;2.27;;;;;;;;;;4946939;28;20580;-53
2022/11/22 03:07:16;;;;;;;2.30;1.93;;;;;;;;;;4962844;28;20454;-53
2022/11/22 03:09:42;;;;;;;4.60;2.20;;;;;;;;;;4967746;28;20476;-53
2022/11/22 03:12:08;;;;;;;2.83;2.20;;;;;;;;;;4959824;28;20484;-53
2022/11/22 03:14:34;;;;;;;2.00;1.77;;;;;;;;;;4933168;28;20946;-53
2022/11/22 03:17:00;;;;;;;1.87;1.77;;;;;;;;;;4967294;28;20499;-53
2022/11/22 03:19:26;;;;;;;3.57;2.43;;;;;;;;;;4963141;28;20444;-54
2022/11/22 03:21:52;;;;;;;2.73;1.90;;;;;;;;;;4963880;28;20438;-53
2022/11/22 03:24:19;;;;;;;4.43;1.83;;;;;;;;;;4924877;28;20503;-53
2022/11/22 03:26:48;;;;;;;3.07;2.00;;;;;;;;;;4963111;28;20442;-53
2022/11/22 03:29:14;;;;;;;4.37;1.77;;;;;;;;;;4961822;28;20474;-54
2022/11/22 03:31:40;;;;;;;2.20;1.90;;;;;;;;;;4962888;28;20575;-54
2022/11/22 03:34:06;;;;;;;5.93;1.83;;;;;;;;;;4962179;28;20954;-54
2022/11/22 03:36:32;;;;;;;2.93;1.93;;;;;;;;;;4957421;28;20580;-53
2022/11/22 03:38:58;;;;;;;2.80;1.80;;;;;;;;;;4954562;28;20553;-52
2022/11/22 03:41:24;;;;;;;1.83;1.70;;;;;;;;;;4955410;28;20498;-55
2022/11/22 03:43:50;;;;;;;2.93;1.80;;;;;;;;;;4951573;28;20433;-55
2022/11/22 03:46:18;;;;;;;2.27;1.67;;;;;;;;;;4961252;28;20481;-55
2022/11/22 03:48:44;;;;;;;2.57;1.67;;;;;;;;;;4960228;28;20971;-56
2022/11/22 03:51:10;;;;;;;2.93;1.83;;;;;;;;;;4965788;28;20438;-54
2022/11/22 03:53:36;;;;;;;1.97;1.37;;;;;;;;;;4940912;28;20481;-54
2022/11/22 03:56:02;;;;;;;2.70;2.10;;;;;;;;;;4963768;28;20434;-53
2022/11/22 03:58:28;;;;;;;2.60;1.60;;;;;;;;;;4916821;28;20458;-53
2022/11/22 04:00:54;;;;;;;6.37;1.50;;;;;;;;;;4966033;28;20446;-54
2022/11/22 04:03:19;;;;;;;2.73;1.50;;;;;;;;;;4958154;28;20534;-53
2022/11/22 04:05:45;;;;;;;3.40;1.50;;;;;;;;;;4968516;28;20482;-53
2022/11/22 04:08:11;;;;;;;3.80;1.57;;;;;;;;;;4943239;28;20454;-53
2022/11/22 04:10:37;;;;;;;4.27;2.17;;;;;;;;;;4965585;28;20430;-53
2022/11/22 04:13:03;;;;;;;2.00;1.80;;;;;;;;;;4939167;28;20456;-53
2022/11/22 04:15:29;;;;;;;2.67;1.73;;;;;;;;;;4961978;28;20442;-53
2022/11/22 04:17:55;;;;;;;3.77;2.37;;;;;;;;;;4957760;28;20449;-54
2022/11/22 04:23:11;;;;;;;2.43;1.63;;;;;;;;;;4940256;28;20536;-54
2022/11/22 04:25:37;;;;;;;6.33;2.33;;;;;;;;;;4962299;28;20450;-54
2022/11/22 04:28:04;;;;;;;2.83;2.10;;;;;;;;;;4953585;28;20500;-53
2022/11/22 04:33:15;;;;;;;4.50;2.13;;;;;;;;;;4918683;28;20457;-54
2022/11/22 04:35:41;;;;;;;6.30;2.50;;;;;;;;;;4964683;28;20442;-51
2022/11/22 04:38:06;;;;;;;3.10;2.10;;;;;;;;;;4960510;28;20427;-55
2022/11/22 04:40:33;;;;;;;2.67;2.37;;;;;;;;;;4963780;28;20443;-53
2022/11/22 04:45:43;;;;;;;3.23;1.73;;;;;;;;;;4961578;28;20429;-54
2022/11/22 04:48:11;;;;;;;2.80;1.93;;;;;;;;;;4954299;28;20437;-54
2022/11/22 04:53:21;;;;;;;3.00;1.77;;;;;;;;;;4926861;28;20449;-53
2022/11/22 04:55:47;;;;;;;3.93;2.03;;;;;;;;;;4961819;28;20449;-54
2022/11/22 04:58:13;;;;;;;3.47;1.80;;;;;;;;;;4958265;28;20517;-52
2022/11/22 05:00:39;;;;;;;3.90;2.13;;;;;;;;;;4961772;28;20437;-54
2022/11/22 05:03:05;;;;;;;4.07;1.70;;;;;;;;;;4919878;28;20512;-57
2022/11/22 05:05:34;;;;;;;2.30;1.70;;;;;;;;;;4965782;28;20440;-52
2022/11/22 05:08:00;;;;;;;3.43;2.47;;;;;;;;;;4964000;28;21034;-55
2022/11/22 05:10:26;;;;;;;3.83;2.00;;;;;;;;;;4964607;28;20580;-54
2022/11/22 05:12:52;;;;;;;4.07;2.20;;;;;;;;;;4943284;28;21056;-53
2022/11/22 05:15:18;;;;;;;2.80;1.60;;;;;;;;;;4959311;28;20449;-53
2022/11/22 05:17:44;;;;;;;3.27;2.10;;;;;;;;;;4942443;28;20553;-53
2022/11/22 05:20:10;;;;;;;10.60;2.43;;;;;;;;;;4959148;28;20457;-52
2022/11/22 05:25:20;;;;;;;2.50;1.77;;;;;;;;;;4961280;28;20753;-52
2022/11/22 05:27:46;;;;;;;3.87;2.17;;;;;;;;;;4961559;28;20430;-52
2022/11/22 05:30:12;;;;;;;6.00;1.90;;;;;;;;;;4963773;28;20482;-55
2022/11/22 05:32:38;;;;;;;1.57;1.27;;;;;;;;;;4917892;28;20492;-54
2022/11/22 05:35:04;;;;;;;2.23;1.90;;;;;;;;;;4962043;28;20487;-54
2022/11/22 05:37:30;;;;;;;2.60;1.73;;;;;;;;;;4955516;28;20441;-53
2022/11/22 05:39:56;;;;;;;4.20;1.60;;;;;;;;;;4966600;28;20442;-53
2022/11/22 05:42:22;;;;;;;2.20;1.70;;;;;;;;;;4962233;28;20438;-54
2022/11/22 05:44:48;;;;;;;3.83;1.60;;;;;;;;;;4961645;28;20577;-53
2022/11/22 05:47:14;;;;;;;4.80;1.50;;;;;;;;;;4942373;28;20448;-53
2022/11/22 05:49:40;;;;;;;2.83;1.43;;;;;;;;;;4962486;28;20509;-54
2022/11/22 05:52:07;;;;;;;2.10;1.47;;;;;;;;;;4938667;28;20443;-54
2022/11/22 05:54:33;;;;;;;2.67;1.97;;;;;;;;;;4958987;28;20446;-53
2022/11/22 05:56:59;;;;;;;2.63;1.93;;;;;;;;;;4954291;28;20967;-53
2022/11/22 05:59:25;;;;;;;6.53;1.60;;;;;;;;;;4960817;28;20442;-52
2022/11/22 06:01:51;;;;;;;4.60;1.90;;;;;;;;;;4933394;28;20438;-53
2022/11/22 06:04:17;;;;;;;3.10;1.53;;;;;;;;;;4965039;28;20504;-54
2022/11/22 06:06:43;;;;;;;3.20;2.30;;;;;;;;;;4922730;28;20446;-55
2022/11/22 06:09:09;;;;;;;1.97;1.40;;;;;;;;;;4942450;28;20485;-55
2022/11/22 06:11:35;;;;;;;2.47;1.90;;;;;;;;;;4939005;28;20760;-53
2022/11/22 06:14:02;;;;;;;2.60;1.97;;;;;;;;;;4955187;28;20442;-53
2022/11/22 06:16:28;;;;;;;5.30;2.13;;;;;;;;;;4940110;28;20450;-54
2022/11/22 06:18:54;;;;;;;2.83;2.00;;;;;;;;;;4962808;28;20486;-54
2022/11/22 06:21:23;;;;;;;4.43;2.10;;;;;;;;;;4948937;28;20449;-54
2022/11/22 06:23:50;;;;;;;1.87;1.60;;;;;;;;;;4957091;28;20446;-56
2022/11/22 06:26:17;;;;;;;12.57;2.23;;;;;;;;;;4943454;28;20442;-55
2022/11/22 06:28:43;;;;;;;3.20;1.87;;;;;;;;;;4962857;28;20598;-56
2022/11/22 06:31:13;;;;;;;4.60;1.80;;;;;;;;;;4959549;28;20584;-60
2022/11/22 06:33:39;;;;;;;3.37;1.97;;;;;;;;;;4964960;28;20437;-57
2022/11/22 06:36:18;;;;;;;7.57;2.10;;;;;;;;;;4941037;28;25656;-58
2022/11/22 06:38:44;;;;;;;2.53;1.40;;;;;;;;;;4942125;28;20470;-58
2022/11/22 06:41:11;;;;;;;5.80;1.40;;;;;;;;;;4957637;28;20501;-55
2022/11/22 06:43:37;;;;;;;3.07;1.53;;;;;;;;;;4939456;28;20460;-55
2022/11/22 06:46:04;;;;;;;3.27;1.70;;;;;;;;;;4966497;28;20433;-59
2022/11/22 06:48:30;;;;;;;2.40;1.30;;;;;;;;;;4939339;28;20973;-55
2022/11/22 06:51:03;;;;;;;2.77;1.60;;;;;;;;;;4970500;28;20456;-56
2022/11/22 06:53:29;;;;;;;3.03;1.73;;;;;;;;;;4945968;28;20446;-57
2022/11/22 06:56:01;;;;;;;5.37;1.87;;;;;;;;;;4960589;28;20532;-56
2022/11/22 06:58:27;;;;;;;2.10;1.80;;;;;;;;;;4928620;28;20439;-58
2022/11/22 07:00:58;;;;;;;2.20;1.83;;;;;;;;;;4947245;28;22155;-59
2022/11/22 07:03:24;;;;;;;3.30;1.90;;;;;;;;;;4925338;28;20454;-58
2022/11/22 07:05:50;;;;;;;5.93;1.73;;;;;;;;;;4967137;28;20856;-56
2022/11/22 07:08:16;;;;;;;6.70;2.20;;;;;;;;;;4916937;28;20446;-56
2022/11/22 07:10:42;;;;;;;4.43;1.93;;;;;;;;;;4961006;28;20777;-55
2022/11/22 07:13:08;;;;;;;4.43;1.90;;;;;;;;;;4946489;28;23283;-54
2022/11/22 07:15:34;;;;;;;3.07;2.10;;;;;;;;;;4967662;28;20529;-55
2022/11/22 07:18:00;;;;;;;4.47;2.00;;;;;;;;;;4945607;28;20465;-55
2022/11/22 07:20:26;;;;;;;4.93;1.83;;;;;;;;;;4958939;28;20593;-56
2022/11/22 07:22:52;;;;;;;7.60;1.97;;;;;;;;;;4942092;28;20448;-55
2022/11/22 07:25:18;;;;;;;4.33;1.93;;;;;;;;;;4963621;28;23153;-55
2022/11/22 07:27:44;;;;;;;4.47;1.60;;;;;;;;;;4961271;28;20452;-56
2022/11/22 07:30:10;;;;;;;6.43;2.07;;;;;;;;;;4967943;28;20473;-57
2022/11/22 07:32:36;;;;;;;2.63;1.70;;;;;;;;;;4937765;28;20445;-54
2022/11/22 07:35:02;;;;;;;6.07;2.50;;;;;;;;;;4945176;28;20552;-58
2022/11/22 07:37:30;;;;;;;2.67;1.77;;;;;;;;;;4956455;28;20477;-57
2022/11/22 07:40:02;;;;;;;4.80;1.83;;;;;;;;;;4942039;28;20450;-57
2022/11/22 07:42:28;;;;;;;5.27;2.17;;;;;;;;;;4926916;28;21197;-54
2022/11/22 07:44:54;;;;;;;12.23;2.50;;;;;;;;;;4963717;28;20438;-54
2022/11/22 07:47:20;;;;;;;1.87;1.57;;;;;;;;;;4939000;28;20446;-52
2022/11/22 07:49:46;;;;;;;5.53;2.70;;;;;;;;;;4959260;28;20482;-52
2022/11/22 07:52:12;;;;;;;3.93;2.60;;;;;;;;;;4943391;28;20442;-57
2022/11/22 07:54:38;;;;;;;4.53;2.07;;;;;;;;;;4970752;28;20495;-53
2022/11/22 07:57:04;;;;;;;6.20;2.27;;;;;;;;;;4937250;28;20452;-54
2022/11/22 07:59:30;;;;;;;3.83;1.83;;;;;;;;;;4968632;28;20857;-53
2022/11/22 08:01:56;;;;;;;4.60;2.60;;;;;;;;;;4963470;28;20513;-52
2022/11/22 08:04:22;;;;;;;4.80;3.03;;;;;;;;;;4965100;28;20442;-52
2022/11/22 08:06:48;;;;;;;6.93;2.40;;;;;;;;;;4963388;28;20475;-55
2022/11/22 08:09:14;;;;;;;5.23;2.20;;;;;;;;;;4969105;28;20474;-53
2022/11/22 08:11:40;;;;;;;6.50;2.97;;;;;;;;;;4917454;28;20446;-53
2022/11/22 08:14:06;;;;;;;6.23;1.90;;;;;;;;;;4964407;28;20442;-54
2022/11/22 08:16:32;;;;;;;10.07;2.57;;;;;;;;;;4942823;28;20434;-52
2022/11/22 08:18:57;;;;;;;3.20;2.17;;;;;;;;;;4966711;28;20480;-55
2022/11/22 08:21:23;;;;;;;3.30;2.10;;;;;;;;;;4946825;28;20481;-52
2022/11/22 08:23:49;;;;;;;5.83;2.10;;;;;;;;;;4968225;28;20453;-57
2022/11/22 08:26:16;;;;;;;10.30;1.80;;;;;;;;;;4946129;28;21247;-51
2022/11/22 08:28:42;;;;;;;4.40;2.10;;;;;;;;;;4950190;28;21019;-53
2022/11/22 08:31:12;;;;;;;5.30;2.50;;;;;;;;;;4946208;28;20450;-52
2022/11/22 08:33:38;;;;;;;8.37;2.53;;;;;;;;;;4964880;28;21042;-53
2022/11/22 08:36:04;;;;;;;5.07;2.77;;;;;;;;;;4932449;28;20732;-57
2022/11/22 08:38:30;;;;;;;6.90;2.10;;;;;;;;;;4964567;28;20524;-53
2022/11/22 08:40:57;;;;;;;3.80;1.77;;;;;;;;;;4939169;28;20810;-53
2022/11/22 08:43:23;;;;;;;6.43;2.60;;;;;;;;;;4956529;28;20475;-54
2022/11/22 08:45:53;;;;;;;4.90;2.27;;;;;;;;;;4956940;28;21165;-53
2022/11/22 08:48:19;;;;;;;3.30;2.37;;;;;;;;;;4958217;28;20450;-54
2022/11/22 08:50:52;;;;;;;12.90;2.50;;;;;;;;;;4964838;28;20472;-53
2022/11/22 08:53:17;;;;;;;7.30;3.83;;;;;;;;;;4955157;28;20446;-53
2022/11/22 08:55:44;;;;;;;7.63;3.60;;;;;;;;;;4963427;28;20430;-53
2022/11/22 08:58:10;;;;;;;6.57;3.50;;;;;;;;;;4951723;28;20981;-54
2022/11/22 09:00:36;;;;;;;8.17;2.90;;;;;;;;;;4959328;28;20434;-54
2022/11/22 09:03:02;;;;;;;10.90;3.80;;;;;;;;;;4948397;28;20446;-54
2022/11/22 09:05:28;;;;;;;4.60;3.03;;;;;;;;;;4967701;28;20887;-54
2022/11/22 09:07:53;;;;;;;5.50;2.50;;;;;;;;;;4942635;28;20477;-54
2022/11/22 09:10:19;;;;;;;6.23;3.47;;;;;;;;;;4963379;28;20509;-55
2022/11/22 09:12:45;;;;;;;6.93;3.03;;;;;;;;;;4960613;28;20928;-54
2022/11/22 09:15:12;;;;;;;5.03;3.03;;;;;;;;;;4964386;28;20445;-54
2022/11/22 09:17:38;;;;;;;11.00;3.27;;;;;;;;;;4922640;28;20446;-53
2022/11/22 09:20:04;;;;;;;6.63;2.87;;;;;;;;;;4960405;28;20441;-54
2022/11/22 09:22:30;;;;;;;5.90;2.97;;;;;;;;;;4955758;28;20426;-54
2022/11/22 09:24:56;;;;;;;6.50;2.60;;;;;;;;;;4965047;28;20438;-53
2022/11/22 09:27:22;;;;;;;3.63;2.40;;;;;;;;;;4946553;28;20465;-53
2022/11/22 09:29:48;;;;;;;3.77;1.80;;;;;;;;;;4965666;28;20490;-53
2022/11/22 09:32:14;;;;;;;3.83;2.20;;;;;;;;;;4919693;28;20756;-53
2022/11/22 09:34:41;;;;;;;5.23;1.90;;;;;;;;;;4961125;28;20501;-53
2022/11/22 09:37:07;;;;;;;3.70;1.87;;;;;;;;;;4940934;28;21263;-53
2022/11/22 09:39:32;;;;;;;2.53;1.63;;;;;;;;;;4964529;28;20474;-52
2022/11/22 09:42:04;;;;;;;4.50;1.93;;;;;;;;;;4951904;28;20551;-53
2022/11/22 09:44:30;;;;;;;2.60;1.70;;;;;;;;;;4968031;28;20496;-53
2022/11/22 09:47:09;;;;;;;8.03;2.20;;;;;;;;;;4934233;28;20449;-53
2022/11/22 09:49:47;;;;;;;3.37;2.50;;;;;;;;;;4962434;28;20717;-52
2022/11/22 09:52:16;;;;;;;3.40;1.63;;;;;;;;;;4955756;28;21106;-52
2022/11/22 09:54:59;;;;;;;6.27;2.27;;;;;;;;;;4963621;28;21042;-57
2022/11/22 09:57:26;;;;;;;6.50;2.17;;;;;;;;;;4940704;28;21193;-55
2022/11/22 10:00:01;;;;;;;4.50;1.73;;;;;;;;;;4940290;28;20688;-53
2022/11/22 10:02:35;;;;;;;5.63;1.80;;;;;;;;;;4963422;28;20438;-51
2022/11/22 10:05:02;;;;;;;6.20;2.23;;;;;;;;;;4941791;28;20500;-57
2022/11/22 10:07:29;;;;;;;5.43;2.13;;;;;;;;;;4952357;28;20469;-54
2022/11/22 10:09:58;;;;;;;5.60;1.60;;;;;;;;;;4946175;28;20482;-53
2022/11/22 10:12:31;;;;;;;6.03;2.13;;;;;;;;;;4966683;28;20439;-52
2022/11/22 10:15:01;;;;;;;3.10;1.73;;;;;;;;;;4940124;28;20449;-52
2022/11/22 10:17:46;;;;;;;4.07;2.07;;;;;;;;;;4960645;28;20441;-53
2022/11/22 10:20:31;;;;;;;3.00;1.23;;;;;;;;;;4923533;28;20504;-53
2022/11/22 10:22:57;;;;;;;2.77;1.40;;;;;;;;;;4954128;28;21164;-55
2022/11/22 10:25:29;;;;;;;3.07;1.83;;;;;;;;;;4945407;28;20449;-54
2022/11/22 10:27:58;;;;;;;5.70;1.70;;;;;;;;;;4967655;28;20458;-54
2022/11/22 10:30:24;;;;;;;3.67;1.83;;;;;;;;;;4933414;28;20544;-54
2022/11/22 10:32:55;;;;;;;4.17;1.90;;;;;;;;;;4955950;28;20437;-53
2022/11/22 10:35:37;;;;;;;6.27;2.10;;;;;;;;;;4962941;28;20931;-54
2022/11/22 10:38:21;;;;;;;2.90;1.27;;;;;;;;;;4968815;28;20448;-54
2022/11/22 10:40:54;;;;;;;7.93;2.63;;;;;;;;;;4947495;28;20543;-55
2022/11/22 10:43:23;;;;;;;5.83;1.97;;;;;;;;;;4973424;28;20445;-53
2022/11/22 10:46:15;;;;;;;2.30;1.27;;;;;;;;;;4945155;28;21044;-53
2022/11/22 10:48:44;;;;;;;4.07;1.50;;;;;;;;;;4964440;28;20481;-53
2022/11/22 10:51:10;;;;;;;6.37;1.57;;;;;;;;;;4928910;28;20450;-54
2022/11/22 10:53:43;;;;;;;2.43;1.47;;;;;;;;;;4967366;28;20543;-53
2022/11/22 10:56:27;;;;;;;2.70;1.10;;;;;;;;;;4967936;28;20443;-53
2022/11/22 10:58:53;;;;;;;4.70;1.60;;;;;;;;;;4965819;28;20438;-52
2022/11/22 11:01:22;;;;;;;7.63;1.80;;;;;;;;;;4949336;28;20444;-52
2022/11/22 11:03:48;;;;;;;8.93;1.20;;;;;;;;;;4967090;28;20437;-53
2022/11/22 11:06:26;;;;;;;4.97;1.40;;;;;;;;;;4930099;28;20453;-53
2022/11/22 11:08:54;;;;;;;11.43;2.67;;;;;;;;;;4960524;28;20485;-53
2022/11/22 11:11:20;;;;;;;4.27;1.63;;;;;;;;;;4959856;28;20896;-53
2022/11/22 11:13:48;;;;;;;3.07;1.33;;;;;;;;;;4963216;28;20478;-53
2022/11/22 11:16:15;;;;;;;4.90;1.73;;;;;;;;;;4949109;28;20442;-53
2022/11/22 11:18:49;;;;;;;3.40;1.50;;;;;;;;;;4954475;28;20461;-53
2022/11/22 11:21:15;;;;;;;3.80;1.90;;;;;;;;;;4927140;28;20462;-53
2022/11/22 11:23:56;;;;;;;2.23;1.20;;;;;;;;;;4967174;28;20797;-52
2022/11/22 11:26:31;;;;;;;5.60;2.07;;;;;;;;;;4942162;28;20478;-54
2022/11/22 11:29:15;;;;;;;3.00;1.47;;;;;;;;;;4961929;28;20506;-53
2022/11/22 11:31:48;;;;;;;4.10;1.30;;;;;;;;;;4953306;28;20446;-53
2022/11/22 11:34:15;;;;;;;17.43;1.90;;;;;;;;;;4956085;28;20442;-53
2022/11/22 11:36:41;;;;;;;6.03;2.40;;;;;;;;;;4957704;28;20971;-53
2022/11/22 11:39:12;;;;;;;4.10;1.00;;;;;;;;;;4963494;28;20446;-53
2022/11/22 11:41:38;;;;;;;4.80;1.20;;;;;;;;;;4942554;28;20443;-53
2022/11/22 11:44:04;;;;;;;6.40;1.40;;;;;;;;;;4957936;28;20460;-54
2022/11/22 11:46:39;;;;;;;5.63;1.30;;;;;;;;;;4952578;28;20439;-54
2022/11/22 11:49:24;;;;;;;6.60;1.23;;;;;;;;;;4947544;28;20478;-53
2022/11/22 11:51:56;;;;;;;2.40;0.90;;;;;;;;;;4961969;28;20497;-53
2022/11/22 11:54:27;;;;;;;4.60;1.03;;;;;;;;;;4929146;28;20454;-54
2022/11/22 11:56:56;;;;;;;4.93;1.83;;;;;;;;;;4963985;28;20932;-52
2022/11/22 11:59:23;;;;;;;3.97;1.53;;;;;;;;;;4943092;28;20633;-53
2022/11/22 12:01:53;;;;;;;3.87;1.17;;;;;;;;;;4965003;28;20456;-54
2022/11/22 12:04:23;;;;;;;4.67;1.57;;;;;;;;;;4947949;28;20460;-54
2022/11/22 12:06:53;;;;;;;4.53;1.13;;;;;;;;;;4930898;28;20450;-53
2022/11/22 12:09:29;;;;;;;3.90;2.10;;;;;;;;;;4967319;28;20472;-53
2022/11/22 12:11:55;;;;;;;3.30;1.50;;;;;;;;;;4959157;28;20445;-53
2022/11/22 12:14:21;;;;;;;4.83;1.33;;;;;;;;;;4959556;28;20946;-54
2022/11/22 12:16:47;;;;;;;7.20;1.60;;;;;;;;;;4938525;28;20470;-53
2022/11/22 12:19:13;;;;;;;4.07;1.50;;;;;;;;;;4923110;28;21179;-51
2022/11/22 12:21:42;;;;;;;3.27;1.10;;;;;;;;;;4963649;28;20425;-53
2022/11/22 12:24:11;;;;;;;4.80;1.30;;;;;;;;;;4937672;28;20187;-52
2022/11/22 12:26:37;;;;;;;4.03;1.20;;;;;;;;;;4965466;28;20848;-53
2022/11/22 12:29:03;;;;;;;6.53;1.17;;;;;;;;;;4905375;28;20477;-55
2022/11/22 12:31:46;;;;;;;2.47;1.30;;;;;;;;;;4960654;28;21017;-52
2022/11/22 12:34:24;;;;;;;4.40;1.20;;;;;;;;;;4961541;28;20441;-53
2022/11/22 12:36:51;;;;;;;5.47;1.20;;;;;;;;;;4963885;28;20446;-52
2022/11/22 12:39:19;;;;;;;5.47;1.37;;;;;;;;;;4913444;28;20496;-57
2022/11/22 12:41:45;;;;;;;3.20;1.37;;;;;;;;;;4960163;28;20435;-60
2022/11/22 12:44:13;;;;;;;2.40;1.30;;;;;;;;;;4945290;28;20481;-56
2022/11/22 12:46:40;;;;;;;2.70;1.20;;;;;;;;;;4949740;28;20426;-54
2022/11/22 12:49:06;;;;;;;3.50;1.50;;;;;;;;;;4926436;28;20556;-54
2022/11/22 12:51:31;;;;;;;3.90;1.00;;;;;;;;;;4959443;28;20433;-53
2022/11/22 12:53:59;;;;;;;2.47;1.17;;;;;;;;;;4943347;28;20469;-57
2022/11/22 12:56:27;;;;;;;6.47;1.57;;;;;;;;;;4939122;28;20469;-56
2022/11/22 12:59:13;;;;;;;3.17;1.20;;;;;;;;;;4888069;28;20443;-54
2022/11/22 13:01:50;;;;;;;4.70;1.43;;;;;;;;;;4950022;28;20442;-55
2022/11/22 13:04:20;;;;;;;7.73;2.60;;;;;;;;;;4953936;28;20521;-53
2022/11/22 13:06:53;;;;;;;1.43;1.23;;;;;;;;;;4946080;28;20446;-52
2022/11/22 13:09:20;;;;;;;5.83;1.47;;;;;;;;;;4925898;28;20480;-52
2022/11/22 13:11:46;;;;;;;4.30;1.70;;;;;;;;;;4956139;28;20944;-52
2022/11/22 13:14:14;;;;;;;2.63;1.37;;;;;;;;;;4962419;28;20460;-54
2022/11/22 13:16:40;;;;;;;8.33;1.37;;;;;;;;;;4952864;28;20430;-52
2022/11/22 13:19:06;;;;;;;3.17;1.40;;;;;;;;;;4956150;28;20448;-53
2022/11/22 13:21:42;;;;;;;9.60;2.10;;;;;;;;;;4962257;28;20445;-53
2022/11/22 13:24:27;;;;;;;3.10;1.33;;;;;;;;;;4919186;28;20449;-53
2022/11/22 13:27:01;;;;;;;2.20;0.93;;;;;;;;;;4969543;28;20443;-53
2022/11/22 13:29:28;;;;;;;2.50;1.03;;;;;;;;;;4922871;28;20474;-54
2022/11/22 13:32:03;;;;;;;2.77;1.20;;;;;;;;;;4962845;28;20438;-55
2022/11/22 13:34:29;;;;;;;3.67;1.20;;;;;;;;;;4938477;28;20464;-55
2022/11/22 13:36:55;;;;;;;2.00;1.20;;;;;;;;;;4964899;28;20434;-54
2022/11/22 13:39:22;;;;;;;12.47;1.50;;;;;;;;;;4947030;28;22653;-53
2022/11/22 13:41:51;;;;;;;6.67;1.50;;;;;;;;;;4962707;28;20461;-53
2022/11/22 13:44:22;;;;;;;2.93;1.23;;;;;;;;;;4962234;28;20940;-53
2022/11/22 13:46:48;;;;;;;1.77;0.70;;;;;;;;;;4965414;28;20498;-51
2022/11/22 13:49:33;;;;;;;2.70;1.30;;;;;;;;;;4961453;28;20912;-53
2022/11/22 13:52:26;;;;;;;1.13;0.70;;;;;;;;;;4967396;28;20453;-52
2022/11/22 13:54:52;;;;;;;2.03;0.87;;;;;;;;;;4909105;28;20450;-53
2022/11/22 13:57:25;;;;;;;15.23;1.30;;;;;;;;;;4959766;28;20516;-53
2022/11/22 14:00:20;;;;;;;3.73;0.97;;;;;;;;;;4925570;28;20449;-54
2022/11/22 14:02:50;;;;;;;4.80;0.90;;;;;;;;;;4915471;28;20473;-54
2022/11/22 14:05:31;;;;;;;4.13;1.00;;;;;;;;;;4933981;28;20441;-54
2022/11/22 14:07:57;;;;;;;1.60;1.03;;;;;;;;;;4969062;28;20445;-53
2022/11/22 14:10:32;;;;;;;3.00;1.47;;;;;;;;;;4959353;28;20485;-54
2022/11/22 14:13:05;;;;;;;1.40;0.83;;;;;;;;;;4963834;28;20430;-53
2022/11/22 14:15:49;;;;;;;1.57;0.77;;;;;;;;;;4937669;28;20476;-54
2022/11/22 14:18:34;;;;;;;2.00;1.00;;;;;;;;;;4969993;28;20901;-54
2022/11/22 14:21:00;;;;;;;1.30;0.83;;;;;;;;;;4960195;28;20520;-57
2022/11/22 14:23:29;;;;;;;2.37;1.00;;;;;;;;;;4971056;28;20462;-54
2022/11/22 14:25:58;;;;;;;1.27;0.90;;;;;;;;;;4944384;28;20446;-54
2022/11/22 14:28:27;;;;;;;1.17;0.70;;;;;;;;;;4969344;28;20465;-54
2022/11/22 14:30:54;;;;;;;2.27;1.37;;;;;;;;;;4925342;28;20470;-54
2022/11/22 14:33:23;;;;;;;1.57;0.60;;;;;;;;;;4970591;28;20440;-54
2022/11/22 14:36:12;;;;;;;4.13;1.00;;;;;;;;;;4950933;28;20438;-53
2022/11/22 14:38:39;;;;;;;2.50;0.83;;;;;;;;;;4962583;28;20473;-54
2022/11/22 14:41:24;;;;;;;2.03;1.00;;;;;;;;;;4951625;28;20445;-54
2022/11/22 14:43:50;;;;;;;3.97;0.90;;;;;;;;;;4964717;28;21003;-55
2022/11/22 14:46:16;;;;;;;1.77;1.00;;;;;;;;;;4945600;28;20477;-54
2022/11/22 14:48:44;;;;;;;2.20;1.00;;;;;;;;;;4954642;28;20453;-55
2022/11/22 14:51:22;;;;;;;1.70;1.00;;;;;;;;;;4934799;28;20441;-54
2022/11/22 14:54:11;;;;;;;2.70;0.97;;;;;;;;;;4969656;28;20467;-54
2022/11/22 14:56:37;;;;;;;3.27;1.10;;;;;;;;;;4950576;28;20458;-55
2022/11/22 14:59:09;;;;;;;3.53;1.07;;;;;;;;;;4948498;28;20861;-53
2022/11/22 15:01:58;;;;;;;2.23;1.17;;;;;;;;;;4955325;28;20491;-54
2022/11/22 15:04:34;;;;;;;2.50;1.10;;;;;;;;;;4910398;28;20465;-53